createdAt,value
2019-05-23T00:02:01.362Z,8.87
2019-05-23T00:05:01.584Z,8.07
2019-05-23T00:07:51.190Z,9.48
2019-05-23T00:10:42.595Z,9.27
2019-05-23T00:13:42.905Z,8.13
2019-05-23T00:16:18.238Z,6.90
2019-05-23T00:18:50.636Z,10.63
2019-05-23T00:21:22.105Z,8.83
2019-05-23T00:23:54.181Z,7.17
2019-05-23T00:26:26.944Z,8.47
2019-05-23T00:29:09.547Z,7.57
2019-05-23T00:31:48.842Z,6.97
2019-05-23T00:34:21.102Z,7.47
2019-05-23T00:36:53.746Z,8.63
2019-05-23T00:39:26.634Z,9.63
2019-05-23T00:41:57.927Z,9.93
2019-05-23T00:44:29.925Z,7.20
2019-05-23T00:47:01.852Z,6.23
2019-05-23T00:49:33.079Z,6.77
2019-05-23T00:52:05.461Z,7.37
2019-05-23T00:54:36.644Z,7.63
2019-05-23T00:57:08.958Z,9.03
2019-05-23T00:59:41.223Z,9.07
2019-05-23T01:02:12.908Z,9.20
2019-05-23T01:04:44.177Z,12.67
2019-05-23T01:07:15.381Z,8.17
2019-05-23T01:09:46.684Z,7.37
2019-05-23T01:12:18.940Z,8.07
2019-05-23T01:14:50.220Z,9.93
2019-05-23T01:17:23.219Z,7.97
2019-05-23T01:19:56.330Z,5.70
2019-05-23T01:22:27.881Z,7.33
2019-05-23T01:24:59.142Z,10.03
2019-05-23T01:27:30.489Z,6.70
2019-05-23T01:30:06.869Z,7.43
2019-05-23T01:32:48.689Z,6.77
2019-05-23T01:35:21.653Z,6.40
2019-05-23T01:37:52.849Z,9.47
2019-05-23T01:40:24.740Z,8.03
2019-05-23T01:42:56.412Z,8.87
2019-05-23T01:45:27.604Z,7.67
2019-05-23T01:47:59.043Z,10.93
2019-05-23T01:50:30.526Z,12.80
2019-05-23T01:53:02.102Z,6.97
2019-05-23T01:55:33.755Z,11.57
2019-05-23T01:58:06.013Z,10.30
2019-05-23T02:00:37.437Z,6.87
2019-05-23T02:03:08.681Z,8.40
2019-05-23T02:05:40.864Z,6.13
2019-05-23T02:08:14.049Z,5.80
2019-05-23T02:10:45.730Z,6.70
2019-05-23T02:13:17.996Z,5.80
2019-05-23T02:15:49.513Z,6.33
2019-05-23T02:18:22.433Z,6.97
2019-05-23T02:20:54.783Z,6.87
2019-05-23T02:23:26.743Z,11.60
2019-05-23T02:25:58.748Z,9.47
2019-05-23T02:28:30.827Z,8.13
2019-05-23T02:31:02.113Z,8.13
2019-05-23T02:33:33.386Z,8.37
2019-05-23T02:36:04.570Z,7.80
2019-05-23T02:38:40.542Z,6.13
2019-05-23T02:41:25.775Z,7.30
2019-05-23T02:44:01.483Z,6.73
2019-05-23T02:46:37.861Z,8.47
2019-05-23T02:49:10.866Z,10.70
2019-05-23T02:51:42.857Z,9.70
2019-05-23T02:54:15.462Z,8.43
2019-05-23T02:56:47.228Z,23.67
2019-05-23T02:59:34.865Z,19.03
2019-05-23T03:02:20.510Z,15.30
2019-05-23T03:04:51.998Z,13.83
2019-05-23T03:07:27.068Z,11.27
2019-05-23T03:09:59.052Z,9.53
2019-05-23T03:12:31.226Z,9.13
2019-05-23T03:15:03.339Z,8.10
2019-05-23T03:17:38.613Z,8.17
2019-05-23T03:20:10.630Z,8.63
2019-05-23T03:22:48.317Z,8.97
2019-05-23T03:25:39.048Z,12.80
2019-05-23T03:28:11.899Z,10.53
2019-05-23T03:31:25.133Z,7.80
2019-05-23T03:33:30.763Z,8.77
2019-05-23T03:36:04.054Z,8.97
2019-05-23T03:38:36.148Z,9.43
2019-05-23T03:41:07.842Z,7.33
2019-05-23T03:43:41.052Z,8.70
2019-05-23T03:46:16.760Z,8.77
2019-05-23T03:48:49.050Z,10.90
2019-05-23T03:51:21.072Z,8.63
2019-05-23T03:53:54.444Z,10.47
2019-05-23T03:56:29.295Z,9.17
2019-05-23T03:59:01.157Z,10.23
2019-05-23T04:01:46.695Z,11.30
2019-05-23T04:04:07.279Z,9.83
2019-05-23T04:06:38.951Z,9.10
2019-05-23T04:09:10.935Z,13.30
2019-05-23T04:11:42.399Z,16.67
2019-05-23T04:14:14.294Z,12.27
2019-05-23T04:16:46.967Z,9.97
2019-05-23T04:19:18.256Z,8.57
2019-05-23T04:21:49.450Z,12.87
2019-05-23T04:24:20.781Z,13.53
2019-05-23T04:26:52.024Z,12.23
2019-05-23T04:29:23.831Z,12.73
2019-05-23T04:32:07.388Z,11.93
2019-05-23T04:34:28.630Z,14.40
2019-05-23T04:37:00.167Z,21.10
2019-05-23T04:39:32.653Z,11.73
2019-05-23T04:42:05.005Z,13.40
2019-05-23T04:44:36.668Z,12.10
2019-05-23T04:47:10.074Z,15.73
2019-05-23T04:49:41.517Z,10.67
2019-05-23T04:52:13.704Z,12.07
2019-05-23T04:54:44.876Z,14.40
2019-05-23T04:57:17.542Z,11.73
2019-05-23T04:59:48.940Z,9.47
2019-05-23T05:02:26.172Z,10.53
2019-05-23T05:04:54.683Z,13.63
2019-05-23T05:07:26.237Z,11.20
2019-05-23T05:09:57.557Z,12.23
2019-05-23T05:12:30.223Z,9.07
2019-05-23T05:15:01.696Z,9.10
2019-05-23T05:17:33.486Z,11.33
2019-05-23T05:20:04.941Z,9.57
2019-05-23T05:22:36.505Z,7.90
2019-05-23T05:25:09.955Z,10.47
2019-05-23T05:27:41.383Z,10.50
2019-05-23T05:30:13.072Z,10.97
2019-05-23T05:32:45.883Z,9.80
2019-05-23T05:35:17.729Z,10.03
2019-05-23T05:37:48.953Z,7.23
2019-05-23T05:40:20.681Z,10.13
2019-05-23T05:42:52.156Z,7.93
2019-05-23T05:45:23.788Z,9.10
2019-05-23T05:47:55.463Z,7.90
2019-05-23T05:50:27.073Z,9.13
2019-05-23T05:52:59.008Z,8.87
2019-05-23T05:55:30.424Z,6.40
2019-05-23T05:58:02.285Z,9.07
2019-05-23T06:00:35.483Z,10.83
2019-05-23T06:03:07.635Z,4.83
2019-05-23T06:05:40.864Z,5.43
2019-05-23T06:08:13.897Z,6.70
2019-05-23T06:10:45.428Z,6.30
2019-05-23T06:13:17.104Z,4.77
2019-05-23T06:15:49.948Z,13.63
2019-05-23T06:18:21.448Z,8.33
2019-05-23T06:20:53.685Z,5.00
2019-05-23T06:23:25.070Z,5.90
2019-05-23T06:25:56.581Z,4.33
2019-05-23T06:28:29.211Z,8.70
2019-05-23T06:31:01.809Z,6.70
2019-05-23T06:33:33.690Z,4.17
2019-05-23T06:36:05.278Z,6.77
2019-05-23T06:38:37.213Z,4.73
2019-05-23T06:41:08.810Z,5.80
2019-05-23T06:43:40.289Z,4.03
2019-05-23T06:46:12.158Z,4.27
2019-05-23T06:48:45.745Z,3.17
2019-05-23T06:51:17.634Z,5.20
2019-05-23T06:53:49.007Z,5.43
2019-05-23T06:56:20.508Z,5.80
2019-05-23T06:58:52.000Z,5.63
2019-05-23T07:01:23.371Z,5.30
2019-05-23T07:03:54.995Z,3.37
2019-05-23T07:06:26.575Z,2.90
2019-05-23T07:08:57.940Z,2.30
2019-05-23T07:11:29.429Z,5.03
2019-05-23T07:14:00.880Z,3.30
2019-05-23T07:16:32.470Z,3.87
2019-05-23T07:19:04.002Z,5.17
2019-05-23T07:21:35.415Z,2.97
2019-05-23T07:24:06.923Z,2.93
2019-05-23T07:26:38.467Z,2.43
2019-05-23T07:29:10.578Z,4.33
2019-05-23T07:31:42.025Z,4.43
2019-05-23T07:34:14.139Z,4.93
2019-05-23T07:36:45.715Z,4.90
2019-05-23T07:39:18.169Z,3.80
2019-05-23T07:41:49.773Z,6.23
2019-05-23T07:44:21.165Z,7.97
2019-05-23T07:46:52.491Z,5.33
2019-05-23T07:49:23.947Z,3.70
2019-05-23T07:51:55.318Z,4.53
2019-05-23T07:54:28.499Z,3.20
2019-05-23T07:56:59.906Z,5.00
2019-05-23T07:59:31.818Z,3.37
2019-05-23T08:02:14.245Z,7.50
2019-05-23T08:04:45.713Z,2.67
2019-05-23T08:07:18.212Z,4.53
2019-05-23T08:09:49.512Z,4.97
2019-05-23T08:12:20.823Z,4.80
2019-05-23T08:14:52.091Z,4.60
2019-05-23T08:17:23.961Z,3.70
2019-05-23T08:19:55.355Z,5.23
2019-05-23T08:22:27.025Z,3.80
2019-05-23T08:24:58.317Z,3.23
2019-05-23T08:27:29.824Z,4.83
2019-05-23T08:30:03.071Z,3.40
2019-05-23T08:32:35.635Z,6.97
2019-05-23T08:35:07.530Z,5.13
2019-05-23T08:37:39.313Z,4.17
2019-05-23T08:40:10.601Z,2.00
2019-05-23T08:42:42.421Z,4.27
2019-05-23T08:45:14.676Z,2.60
2019-05-23T08:47:46.211Z,5.33
2019-05-23T08:50:17.859Z,4.57
2019-05-23T08:52:49.473Z,5.20
2019-05-23T08:55:22.812Z,2.73
2019-05-23T08:57:54.233Z,1.43
2019-05-23T09:00:27.517Z,6.03
2019-05-23T09:02:59.437Z,3.57
2019-05-23T09:05:36.008Z,4.70
2019-05-23T09:08:09.050Z,4.47
2019-05-23T09:10:40.504Z,3.53
2019-05-23T09:13:13.928Z,2.50
2019-05-23T09:15:45.183Z,2.27
2019-05-23T09:18:16.744Z,5.10
2019-05-23T09:20:47.917Z,3.93
2019-05-23T09:23:19.124Z,2.57
2019-05-23T09:25:50.811Z,5.13
2019-05-23T09:28:23.070Z,3.43
2019-05-23T09:30:54.372Z,3.37
2019-05-23T09:33:25.860Z,5.67
2019-05-23T09:35:57.134Z,3.07
2019-05-23T09:38:28.795Z,4.23
2019-05-23T09:41:00.514Z,5.47
2019-05-23T09:43:31.856Z,3.67
2019-05-23T09:46:03.295Z,6.37
2019-05-23T09:48:35.180Z,4.80
2019-05-23T09:51:06.535Z,4.17
2019-05-23T09:53:37.928Z,3.30
2019-05-23T09:56:09.259Z,3.80
2019-05-23T09:58:40.497Z,4.57
2019-05-23T10:01:12.617Z,5.13
2019-05-23T10:03:44.030Z,4.63
2019-05-23T10:06:15.549Z,5.70
2019-05-23T10:08:46.944Z,7.17
2019-05-23T10:11:18.378Z,5.67
2019-05-23T10:13:49.789Z,6.70
2019-05-23T10:16:21.505Z,4.07
2019-05-23T10:18:52.838Z,3.63
2019-05-23T10:21:24.346Z,2.73
2019-05-23T10:23:55.578Z,2.30
2019-05-23T10:26:26.966Z,2.27
2019-05-23T10:28:58.501Z,4.67
2019-05-23T10:31:30.128Z,3.10
2019-05-23T10:34:01.524Z,3.10
2019-05-23T10:36:32.977Z,3.30
2019-05-23T10:39:07.162Z,3.33
2019-05-23T10:41:38.611Z,6.83
2019-05-23T10:44:10.071Z,3.07
2019-05-23T10:46:41.446Z,3.40
2019-05-23T10:49:12.908Z,4.20
2019-05-23T10:51:44.420Z,3.70
2019-05-23T10:54:16.059Z,1.37
2019-05-23T10:56:47.560Z,2.53
2019-05-23T10:59:18.835Z,3.30
2019-05-23T11:01:50.208Z,2.20
2019-05-23T11:04:21.679Z,2.57
2019-05-23T11:06:53.180Z,2.17
2019-05-23T11:09:37.286Z,5.33
2019-05-23T11:11:58.458Z,4.13
2019-05-23T11:14:29.931Z,2.63
2019-05-23T11:17:01.879Z,4.87
2019-05-23T11:19:33.336Z,2.67
2019-05-23T11:22:06.156Z,3.33
2019-05-23T11:24:37.740Z,6.30
2019-05-23T11:27:09.177Z,4.50
2019-05-23T11:29:40.551Z,3.93
2019-05-23T11:32:12.519Z,3.10
2019-05-23T11:34:44.303Z,3.00
2019-05-23T11:37:15.828Z,2.83
2019-05-23T11:39:50.170Z,2.43
2019-05-23T11:42:20.399Z,2.67
2019-05-23T11:44:51.833Z,2.37
2019-05-23T11:47:24.439Z,2.40
2019-05-23T11:49:55.709Z,2.07
2019-05-23T11:52:28.749Z,1.77
2019-05-23T11:55:00.817Z,3.27
2019-05-23T11:57:32.174Z,3.93
2019-05-23T12:00:06.556Z,2.70
2019-05-23T12:02:45.098Z,2.23
2019-05-23T12:05:22.356Z,1.40
2019-05-23T12:07:53.824Z,2.10
2019-05-23T12:10:25.356Z,3.47
2019-05-23T12:12:56.677Z,1.53
2019-05-23T12:15:30.017Z,2.57
2019-05-23T12:18:01.311Z,1.60
2019-05-23T12:20:32.618Z,3.03
2019-05-23T12:23:10.467Z,2.00
2019-05-23T12:25:37.481Z,2.67
2019-05-23T12:28:10.562Z,3.60
2019-05-23T12:30:42.017Z,4.07
2019-05-23T12:33:13.594Z,7.73
2019-05-23T12:35:44.908Z,5.93
2019-05-23T12:38:16.290Z,15.13
2019-05-23T12:40:47.920Z,8.70
2019-05-23T12:43:19.400Z,11.00
2019-05-23T12:45:50.926Z,11.87
2019-05-23T12:48:30.029Z,13.37
2019-05-23T12:51:09.310Z,15.47
2019-05-23T12:53:40.705Z,15.27
2019-05-23T12:56:12.525Z,16.63
2019-05-23T12:58:44.512Z,14.10
2019-05-23T13:01:16.308Z,13.77
2019-05-23T13:03:47.963Z,13.70
2019-05-23T13:06:19.471Z,15.30
2019-05-23T13:08:50.928Z,15.30
2019-05-23T13:11:23.015Z,11.73
2019-05-23T13:13:54.845Z,12.60
2019-05-23T13:16:26.402Z,12.87
2019-05-23T13:18:57.672Z,11.30
2019-05-23T13:21:28.843Z,10.13
2019-05-23T13:24:00.296Z,5.93
2019-05-23T13:26:31.867Z,7.80
2019-05-23T13:29:03.262Z,7.73
2019-05-23T13:31:34.881Z,8.77
2019-05-23T13:34:06.461Z,3.43
2019-05-23T13:36:37.762Z,4.83
2019-05-23T13:39:09.997Z,5.93
2019-05-23T13:41:42.264Z,4.93
2019-05-23T13:44:32.094Z,4.70
2019-05-23T13:46:46.592Z,7.50
2019-05-23T13:49:18.101Z,9.27
2019-05-23T13:51:49.725Z,8.47
2019-05-23T13:54:21.771Z,7.73
2019-05-23T13:56:53.285Z,7.67
2019-05-23T13:59:24.487Z,5.30
2019-05-23T14:01:57.046Z,5.37
2019-05-23T14:04:28.503Z,9.40
2019-05-23T14:06:59.883Z,9.77
2019-05-23T14:09:32.439Z,8.43
2019-05-23T14:12:20.820Z,11.37
2019-05-23T14:14:38.156Z,8.37
2019-05-23T14:17:20.150Z,12.60
2019-05-23T14:19:51.816Z,10.20
2019-05-23T14:22:23.127Z,13.60
2019-05-23T14:24:54.431Z,8.93
2019-05-23T14:27:39.446Z,12.60
2019-05-23T14:30:14.808Z,12.30
2019-05-23T14:32:50.880Z,12.40
2019-05-23T14:35:27.245Z,10.80
2019-05-23T14:38:03.332Z,12.17
2019-05-23T14:40:34.956Z,12.70
2019-05-23T14:43:11.110Z,13.97
2019-05-23T14:45:44.203Z,14.13
2019-05-23T14:48:36.478Z,13.93
2019-05-23T14:51:09.970Z,16.13
2019-05-23T14:53:59.679Z,13.23
2019-05-23T14:56:32.432Z,13.73
2019-05-23T14:59:03.944Z,15.93
2019-05-23T15:01:35.734Z,17.00
2019-05-23T15:04:07.402Z,16.10
2019-05-23T15:06:38.606Z,16.00
2019-05-23T15:09:10.093Z,18.77
2019-05-23T15:11:41.573Z,16.37
2019-05-23T15:14:12.868Z,14.87
2019-05-23T15:16:44.820Z,16.07
2019-05-23T15:19:36.423Z,17.00
2019-05-23T15:21:49.401Z,14.07
2019-05-23T15:24:21.103Z,13.87
2019-05-23T15:26:52.388Z,14.90
2019-05-23T15:29:28.635Z,15.50
2019-05-23T15:32:02.287Z,15.00
2019-05-23T15:34:30.085Z,17.37
2019-05-23T15:37:01.563Z,15.10
2019-05-23T15:39:33.190Z,17.90
2019-05-23T15:42:04.805Z,17.10
2019-05-23T15:44:36.488Z,14.27
2019-05-23T15:47:07.789Z,18.27
2019-05-23T15:49:41.109Z,14.23
2019-05-23T15:52:14.213Z,16.93
2019-05-23T15:54:49.952Z,15.27
2019-05-23T15:57:38.295Z,15.77
2019-05-23T16:00:12.293Z,15.77
2019-05-23T16:02:45.487Z,17.27
2019-05-23T16:05:18.670Z,17.40
2019-05-23T16:07:49.968Z,17.03
2019-05-23T16:10:21.668Z,21.80
2019-05-23T16:12:53.285Z,13.62
2019-05-23T16:15:24.625Z,17.27
2019-05-23T16:17:56.641Z,15.43
2019-05-23T16:20:28.281Z,18.27
2019-05-23T16:22:59.632Z,18.17
2019-05-23T16:25:31.390Z,15.90
2019-05-23T16:28:02.860Z,18.37
2019-05-23T16:30:34.340Z,14.63
2019-05-23T16:33:05.633Z,18.73
2019-05-23T16:35:38.358Z,18.90
2019-05-23T16:38:09.694Z,17.70
2019-05-23T16:40:41.377Z,15.37
2019-05-23T16:43:13.951Z,18.93
2019-05-23T16:45:45.335Z,15.30
2019-05-23T16:48:16.795Z,15.73
2019-05-23T16:50:48.414Z,15.53
2019-05-23T16:53:20.199Z,18.07
2019-05-23T16:56:05.768Z,18.53
2019-05-23T16:58:38.905Z,16.33
2019-05-23T17:01:24.053Z,15.37
2019-05-23T17:03:57.810Z,16.97
2019-05-23T17:06:33.523Z,17.27
2019-05-23T17:09:25.349Z,16.73
2019-05-23T17:11:58.933Z,18.73
2019-05-23T17:14:32.072Z,23.97
2019-05-23T17:17:43.534Z,18.43
2019-05-23T17:20:00.230Z,18.60
2019-05-23T17:22:42.250Z,16.67
2019-05-23T17:25:15.424Z,19.80
2019-05-23T17:27:54.420Z,22.10
2019-05-23T17:30:27.610Z,19.93
2019-05-23T17:32:59.085Z,21.13
2019-05-23T17:35:30.437Z,21.53
2019-05-23T17:38:01.851Z,20.27
2019-05-23T17:40:33.135Z,25.57
2019-05-23T17:43:04.401Z,20.53
2019-05-23T17:45:36.232Z,29.60
2019-05-23T17:48:07.810Z,21.63
2019-05-23T17:50:39.584Z,26.83
2019-05-23T17:53:10.859Z,27.43
2019-05-23T17:55:42.868Z,23.27
2019-05-23T17:58:16.059Z,23.30
2019-05-23T18:00:48.522Z,21.37
2019-05-23T18:03:19.896Z,21.13
2019-05-23T18:05:51.572Z,21.80
2019-05-23T18:08:22.920Z,20.10
2019-05-23T18:10:54.468Z,20.33
2019-05-23T18:13:26.499Z,20.97
2019-05-23T18:15:58.092Z,25.97
2019-05-23T18:18:29.972Z,22.00
2019-05-23T18:21:03.248Z,34.27
2019-05-23T18:23:34.712Z,30.93
2019-05-23T18:26:06.520Z,22.27
2019-05-23T18:28:38.158Z,30.37
2019-05-23T18:31:21.471Z,23.23
2019-05-23T18:33:53.928Z,22.40
2019-05-23T18:36:25.836Z,24.73
2019-05-23T18:38:57.111Z,23.07
2019-05-23T18:41:29.690Z,23.73
2019-05-23T18:44:01.876Z,21.57
2019-05-23T18:46:37.784Z,25.03
2019-05-23T18:49:12.163Z,21.17
2019-05-23T18:51:43.346Z,21.20
2019-05-23T18:54:14.838Z,24.53
2019-05-23T18:56:46.306Z,21.87
2019-05-23T18:59:18.320Z,20.37
2019-05-23T19:01:50.003Z,26.63
2019-05-23T19:04:21.532Z,23.33
2019-05-23T19:06:53.220Z,20.77
2019-05-23T19:09:25.750Z,24.37
2019-05-23T19:11:57.319Z,21.77
2019-05-23T19:14:28.663Z,21.40
2019-05-23T19:17:00.497Z,21.40
2019-05-23T19:19:32.606Z,22.00
2019-05-23T19:22:05.157Z,25.03
2019-05-23T19:24:36.772Z,23.27
2019-05-23T19:27:09.246Z,22.50
2019-05-23T19:29:40.613Z,21.03
2019-05-23T19:32:14.130Z,21.57
2019-05-23T19:34:45.993Z,20.20
2019-05-23T19:37:17.649Z,21.80
2019-05-23T19:39:49.070Z,19.33
2019-05-23T19:42:21.557Z,24.30
2019-05-23T19:44:52.873Z,20.23
2019-05-23T19:47:24.284Z,21.23
2019-05-23T19:49:55.720Z,21.80
2019-05-23T19:52:28.040Z,23.73
2019-05-23T19:54:59.385Z,17.70
2019-05-23T19:57:31.630Z,20.13
2019-05-23T20:00:08.957Z,17.30
2019-05-23T20:02:57.019Z,20.00
2019-05-23T20:05:39.682Z,21.93
2019-05-23T20:08:11.011Z,21.43
2019-05-23T20:10:43.124Z,16.77
2019-05-23T20:13:18.099Z,16.30
2019-05-23T20:15:48.042Z,16.80
2019-05-23T20:18:19.564Z,18.17
2019-05-23T20:20:51.437Z,17.93
2019-05-23T20:23:23.059Z,14.93
2019-05-23T20:25:54.630Z,15.10
2019-05-23T20:28:27.003Z,17.93
2019-05-23T20:30:59.298Z,20.87
2019-05-23T20:33:30.785Z,17.13
2019-05-23T20:36:03.925Z,14.17
2019-05-23T20:38:35.284Z,15.53
2019-05-23T20:41:06.605Z,16.70
2019-05-23T20:43:38.001Z,17.93
2019-05-23T20:46:09.386Z,14.40
2019-05-23T20:48:40.721Z,16.30
2019-05-23T20:51:11.991Z,13.53
2019-05-23T20:53:44.242Z,17.10
2019-05-23T20:56:15.548Z,15.57
2019-05-23T20:58:47.183Z,14.00
2019-05-23T21:01:20.561Z,14.83
2019-05-23T21:03:52.655Z,15.53
2019-05-23T21:06:23.937Z,14.27
2019-05-23T21:08:55.242Z,18.27
2019-05-23T21:11:26.636Z,13.50
2019-05-23T21:13:57.911Z,18.50
2019-05-23T21:16:29.225Z,16.53
2019-05-23T21:19:00.535Z,12.90
2019-05-23T21:21:31.734Z,14.13
2019-05-23T21:24:03.115Z,14.47
2019-05-23T21:26:34.755Z,15.13
2019-05-23T21:29:06.074Z,13.40
2019-05-23T21:31:37.500Z,15.67
2019-05-23T21:34:08.811Z,14.83
2019-05-23T21:36:40.647Z,16.07
2019-05-23T21:39:13.108Z,14.23
2019-05-23T21:41:44.409Z,16.83
2019-05-23T21:44:15.688Z,16.83
2019-05-23T21:46:46.981Z,18.73
2019-05-23T21:49:18.327Z,17.00
2019-05-23T21:51:51.787Z,19.30
2019-05-23T21:54:22.954Z,15.93
2019-05-23T21:56:54.378Z,18.83
2019-05-23T21:59:25.561Z,16.17
2019-05-23T22:01:59.357Z,17.03
2019-05-23T22:04:32.448Z,16.50
2019-05-23T22:07:03.806Z,21.00
2019-05-23T22:09:35.074Z,19.73
2019-05-23T22:12:08.335Z,19.27
2019-05-23T22:14:40.136Z,20.37
2019-05-23T22:17:11.314Z,19.33
2019-05-23T22:19:43.029Z,14.30
2019-05-23T22:22:14.447Z,13.47
2019-05-23T22:24:45.812Z,14.23
2019-05-23T22:27:17.058Z,16.93
2019-05-23T22:29:48.224Z,17.03
2019-05-23T22:32:21.329Z,17.10
2019-05-23T22:34:57.263Z,17.60
2019-05-23T22:37:28.712Z,16.83
2019-05-23T22:40:00.150Z,15.73
2019-05-23T22:42:33.236Z,15.13
2019-05-23T22:45:08.962Z,13.20
2019-05-23T22:47:40.350Z,19.20
2019-05-23T22:50:13.972Z,12.97
2019-05-23T22:52:45.570Z,15.77
2019-05-23T22:55:16.772Z,14.27
2019-05-23T22:57:48.078Z,13.93
2019-05-23T23:00:23.934Z,16.93
2019-05-23T23:02:55.129Z,14.00
2019-05-23T23:05:26.710Z,13.40
2019-05-23T23:07:58.599Z,17.13
2019-05-23T23:10:29.866Z,15.10
2019-05-23T23:13:01.145Z,13.23
2019-05-23T23:15:33.179Z,18.00
2019-05-23T23:18:04.477Z,11.63
2019-05-23T23:20:36.024Z,12.87
2019-05-23T23:23:07.297Z,15.07
2019-05-23T23:25:38.569Z,11.93
2019-05-23T23:28:11.009Z,11.37
2019-05-23T23:30:44.199Z,14.27
2019-05-23T23:33:15.464Z,11.43
2019-05-23T23:35:46.764Z,12.67
2019-05-23T23:38:18.034Z,12.57
2019-05-23T23:40:49.803Z,11.63
2019-05-23T23:43:21.101Z,11.00
2019-05-23T23:46:10.944Z,11.87
2019-05-23T23:49:00.526Z,12.63
2019-05-23T23:51:50.544Z,12.43
2019-05-23T23:54:40.544Z,13.88
2019-05-23T23:57:30.568Z,15.23
